sensor_id;sensor_type;location;lat;lon;timestamp;P1;durP1;ratioP1;P2;durP2;ratioP2
7693;SDS011;3889;48.162;11.510;2023-03-26T00:01:42;2.90;;;1.40;;
7693;SDS011;3889;48.162;11.510;2023-03-26T00:04:37;3.38;;;1.52;;
7693;SDS011;3889;48.162;11.510;2023-03-26T00:07:07;3.78;;;1.50;;
7693;SDS011;3889;48.162;11.510;2023-03-26T00:09:35;2.55;;;1.58;;
7693;SDS011;3889;48.162;11.510;2023-03-26T00:12:03;3.05;;;1.40;;
7693;SDS011;3889;48.162;11.510;2023-03-26T00:14:31;3.25;;;1.30;;
7693;SDS011;3889;48.162;11.510;2023-03-26T00:17:00;3.23;;;1.70;;
7693;SDS011;3889;48.162;11.510;2023-03-26T00:19:29;2.67;;;1.50;;
7693;SDS011;3889;48.162;11.510;2023-03-26T00:21:58;3.75;;;1.75;;
7693;SDS011;3889;48.162;11.510;2023-03-26T00:24:28;3.88;;;1.50;;
7693;SDS011;3889;48.162;11.510;2023-03-26T00:26:56;2.28;;;1.63;;
7693;SDS011;3889;48.162;11.510;2023-03-26T00:29:25;3.80;;;1.60;;
7693;SDS011;3889;48.162;11.510;2023-03-26T00:31:53;4.93;;;1.90;;
7693;SDS011;3889;48.162;11.510;2023-03-26T00:34:21;2.65;;;1.40;;
7693;SDS011;3889;48.162;11.510;2023-03-26T00:36:49;4.25;;;1.85;;
7693;SDS011;3889;48.162;11.510;2023-03-26T00:39:21;4.18;;;1.70;;
7693;SDS011;3889;48.162;11.510;2023-03-26T00:41:49;4.03;;;1.70;;
7693;SDS011;3889;48.162;11.510;2023-03-26T00:44:20;4.22;;;1.98;;
7693;SDS011;3889;48.162;11.510;2023-03-26T00:46:47;3.00;;;1.80;;
7693;SDS011;3889;48.162;11.510;2023-03-26T00:49:15;3.10;;;1.58;;
7693;SDS011;3889;48.162;11.510;2023-03-26T00:51:43;4.43;;;1.73;;
7693;SDS011;3889;48.162;11.510;2023-03-26T00:54:11;3.58;;;1.70;;
7693;SDS011;3889;48.162;11.510;2023-03-26T00:56:40;2.67;;;1.60;;
7693;SDS011;3889;48.162;11.510;2023-03-26T00:59:08;3.73;;;1.80;;
7693;SDS011;3889;48.162;11.510;2023-03-26T01:01:36;3.03;;;1.70;;
7693;SDS011;3889;48.162;11.510;2023-03-26T01:04:19;4.03;;;1.60;;
7693;SDS011;3889;48.162;11.510;2023-03-26T01:06:53;3.60;;;1.80;;
7693;SDS011;3889;48.162;11.510;2023-03-26T01:09:25;4.90;;;1.97;;
7693;SDS011;3889;48.162;11.510;2023-03-26T01:11:59;3.55;;;1.70;;
7693;SDS011;3889;48.162;11.510;2023-03-26T01:14:30;3.17;;;1.48;;
7693;SDS011;3889;48.162;11.510;2023-03-26T01:16:59;2.78;;;1.50;;
7693;SDS011;3889;48.162;11.510;2023-03-26T01:19:29;4.53;;;1.92;;
7693;SDS011;3889;48.162;11.510;2023-03-26T01:22:03;4.30;;;1.52;;
7693;SDS011;3889;48.162;11.510;2023-03-26T01:24:36;5.90;;;1.92;;
7693;SDS011;3889;48.162;11.510;2023-03-26T01:27:07;2.90;;;1.75;;
7693;SDS011;3889;48.162;11.510;2023-03-26T01:29:43;4.03;;;1.80;;
7693;SDS011;3889;48.162;11.510;2023-03-26T01:32:21;4.85;;;2.00;;
7693;SDS011;3889;48.162;11.510;2023-03-26T01:34:57;4.75;;;1.83;;
7693;SDS011;3889;48.162;11.510;2023-03-26T01:37:36;4.43;;;1.70;;
7693;SDS011;3889;48.162;11.510;2023-03-26T01:40:15;3.70;;;1.60;;
7693;SDS011;3889;48.162;11.510;2023-03-26T01:42:51;3.70;;;1.75;;
7693;SDS011;3889;48.162;11.510;2023-03-26T01:45:25;3.28;;;1.67;;
7693;SDS011;3889;48.162;11.510;2023-03-26T01:47:56;4.72;;;1.95;;
7693;SDS011;3889;48.162;11.510;2023-03-26T01:50:25;3.70;;;1.90;;
7693;SDS011;3889;48.162;11.510;2023-03-26T01:52:53;6.07;;;2.42;;
7693;SDS011;3889;48.162;11.510;2023-03-26T01:55:22;3.95;;;1.90;;
7693;SDS011;3889;48.162;11.510;2023-03-26T01:57:57;4.57;;;1.95;;
7693;SDS011;3889;48.162;11.510;2023-03-26T02:00:33;5.53;;;2.03;;
7693;SDS011;3889;48.162;11.510;2023-03-26T02:03:12;4.35;;;2.05;;
7693;SDS011;3889;48.162;11.510;2023-03-26T02:05:48;6.90;;;2.25;;
7693;SDS011;3889;48.162;11.510;2023-03-26T02:08:22;4.05;;;1.83;;
7693;SDS011;3889;48.162;11.510;2023-03-26T02:11:03;4.85;;;2.00;;
7693;SDS011;3889;48.162;11.510;2023-03-26T02:13:37;4.18;;;1.90;;
7693;SDS011;3889;48.162;11.510;2023-03-26T02:16:06;4.03;;;1.88;;
7693;SDS011;3889;48.162;11.510;2023-03-26T02:18:36;6.43;;;2.15;;
7693;SDS011;3889;48.162;11.510;2023-03-26T02:21:06;3.93;;;2.07;;
7693;SDS011;3889;48.162;11.510;2023-03-26T02:23:36;5.82;;;2.20;;
7693;SDS011;3889;48.162;11.510;2023-03-26T02:26:07;5.25;;;2.17;;
7693;SDS011;3889;48.162;11.510;2023-03-26T02:28:36;5.60;;;2.33;;
7693;SDS011;3889;48.162;11.510;2023-03-26T02:31:05;5.22;;;1.85;;
7693;SDS011;3889;48.162;11.510;2023-03-26T02:33:36;6.10;;;1.92;;
7693;SDS011;3889;48.162;11.510;2023-03-26T02:36:05;4.70;;;1.67;;
7693;SDS011;3889;48.162;11.510;2023-03-26T02:38:34;4.90;;;1.88;;
7693;SDS011;3889;48.162;11.510;2023-03-26T02:41:02;6.13;;;2.40;;
7693;SDS011;3889;48.162;11.510;2023-03-26T02:43:32;3.85;;;2.03;;
7693;SDS011;3889;48.162;11.510;2023-03-26T02:46:00;5.97;;;2.25;;
7693;SDS011;3889;48.162;11.510;2023-03-26T02:48:28;3.70;;;2.00;;
7693;SDS011;3889;48.162;11.510;2023-03-26T02:50:56;4.32;;;1.90;;
7693;SDS011;3889;48.162;11.510;2023-03-26T02:53:24;5.47;;;1.95;;
7693;SDS011;3889;48.162;11.510;2023-03-26T02:55:55;5.05;;;2.08;;
7693;SDS011;3889;48.162;11.510;2023-03-26T02:58:23;6.00;;;2.20;;
7693;SDS011;3889;48.162;11.510;2023-03-26T03:00:52;7.57;;;2.08;;
7693;SDS011;3889;48.162;11.510;2023-03-26T03:03:20;4.85;;;2.28;;
7693;SDS011;3889;48.162;11.510;2023-03-26T03:05:49;4.95;;;2.30;;
7693;SDS011;3889;48.162;11.510;2023-03-26T03:08:18;4.65;;;2.13;;
7693;SDS011;3889;48.162;11.510;2023-03-26T03:10:54;4.40;;;2.03;;
7693;SDS011;3889;48.162;11.510;2023-03-26T03:13:22;5.65;;;2.05;;
7693;SDS011;3889;48.162;11.510;2023-03-26T03:15:50;5.82;;;2.20;;
7693;SDS011;3889;48.162;11.510;2023-03-26T03:18:20;4.82;;;2.13;;
7693;SDS011;3889;48.162;11.510;2023-03-26T03:20:48;4.05;;;1.90;;
7693;SDS011;3889;48.162;11.510;2023-03-26T03:23:16;4.68;;;1.90;;
7693;SDS011;3889;48.162;11.510;2023-03-26T03:25:44;5.32;;;1.90;;
7693;SDS011;3889;48.162;11.510;2023-03-26T03:28:12;5.20;;;2.22;;
7693;SDS011;3889;48.162;11.510;2023-03-26T03:30:40;3.92;;;2.08;;
7693;SDS011;3889;48.162;11.510;2023-03-26T03:33:09;5.63;;;2.30;;
7693;SDS011;3889;48.162;11.510;2023-03-26T03:35:38;3.97;;;2.00;;
7693;SDS011;3889;48.162;11.510;2023-03-26T03:38:07;3.95;;;2.13;;
7693;SDS011;3889;48.162;11.510;2023-03-26T03:40:34;5.10;;;2.27;;
7693;SDS011;3889;48.162;11.510;2023-03-26T03:43:02;5.43;;;2.28;;
7693;SDS011;3889;48.162;11.510;2023-03-26T03:45:30;4.65;;;1.90;;
7693;SDS011;3889;48.162;11.510;2023-03-26T03:47:58;5.35;;;2.20;;
7693;SDS011;3889;48.162;11.510;2023-03-26T03:50:27;6.00;;;2.10;;
7693;SDS011;3889;48.162;11.510;2023-03-26T03:52:59;5.60;;;1.95;;
7693;SDS011;3889;48.162;11.510;2023-03-26T03:55:28;4.32;;;2.05;;
7693;SDS011;3889;48.162;11.510;2023-03-26T03:57:55;5.60;;;2.20;;
7693;SDS011;3889;48.162;11.510;2023-03-26T04:00:25;4.85;;;2.00;;
7693;SDS011;3889;48.162;11.510;2023-03-26T04:02:53;5.82;;;2.17;;
7693;SDS011;3889;48.162;11.510;2023-03-26T04:05:21;4.38;;;2.00;;
7693;SDS011;3889;48.162;11.510;2023-03-26T04:07:50;4.68;;;2.05;;
7693;SDS011;3889;48.162;11.510;2023-03-26T04:10:18;5.28;;;2.00;;
7693;SDS011;3889;48.162;11.510;2023-03-26T04:12:46;5.10;;;1.90;;
7693;SDS011;3889;48.162;11.510;2023-03-26T04:15:14;6.05;;;2.38;;
7693;SDS011;3889;48.162;11.510;2023-03-26T04:17:42;5.18;;;1.95;;
7693;SDS011;3889;48.162;11.510;2023-03-26T04:20:10;5.95;;;2.50;;
7693;SDS011;3889;48.162;11.510;2023-03-26T04:22:41;4.93;;;2.33;;
7693;SDS011;3889;48.162;11.510;2023-03-26T04:25:10;4.30;;;2.00;;
7693;SDS011;3889;48.162;11.510;2023-03-26T04:27:40;4.22;;;2.13;;
7693;SDS011;3889;48.162;11.510;2023-03-26T04:30:09;5.57;;;2.20;;
7693;SDS011;3889;48.162;11.510;2023-03-26T04:32:41;5.03;;;2.13;;
7693;SDS011;3889;48.162;11.510;2023-03-26T04:35:10;4.78;;;2.03;;
7693;SDS011;3889;48.162;11.510;2023-03-26T04:37:41;4.38;;;2.10;;
7693;SDS011;3889;48.162;11.510;2023-03-26T04:40:13;5.47;;;2.30;;
7693;SDS011;3889;48.162;11.510;2023-03-26T04:42:42;5.10;;;2.15;;
7693;SDS011;3889;48.162;11.510;2023-03-26T04:45:12;6.22;;;2.40;;
7693;SDS011;3889;48.162;11.510;2023-03-26T04:47:40;5.38;;;2.22;;
7693;SDS011;3889;48.162;11.510;2023-03-26T04:50:08;5.38;;;2.30;;
7693;SDS011;3889;48.162;11.510;2023-03-26T04:52:37;5.85;;;2.15;;
7693;SDS011;3889;48.162;11.510;2023-03-26T04:55:11;5.57;;;2.10;;
7693;SDS011;3889;48.162;11.510;2023-03-26T04:57:48;5.78;;;2.30;;
7693;SDS011;3889;48.162;11.510;2023-03-26T05:00:21;6.28;;;2.47;;
7693;SDS011;3889;48.162;11.510;2023-03-26T05:02:50;5.15;;;2.30;;
7693;SDS011;3889;48.162;11.510;2023-03-26T05:05:21;6.15;;;2.55;;
7693;SDS011;3889;48.162;11.510;2023-03-26T05:07:49;5.65;;;2.25;;
7693;SDS011;3889;48.162;11.510;2023-03-26T05:10:19;4.75;;;2.33;;
7693;SDS011;3889;48.162;11.510;2023-03-26T05:12:47;7.05;;;2.42;;
7693;SDS011;3889;48.162;11.510;2023-03-26T05:15:15;5.57;;;2.53;;
7693;SDS011;3889;48.162;11.510;2023-03-26T05:17:44;6.75;;;2.40;;
7693;SDS011;3889;48.162;11.510;2023-03-26T05:20:14;4.80;;;2.10;;
7693;SDS011;3889;48.162;11.510;2023-03-26T05:22:46;6.03;;;2.20;;
7693;SDS011;3889;48.162;11.510;2023-03-26T05:25:14;4.55;;;2.13;;
7693;SDS011;3889;48.162;11.510;2023-03-26T05:27:43;4.38;;;1.60;;
7693;SDS011;3889;48.162;11.510;2023-03-26T05:30:12;6.07;;;2.30;;
7693;SDS011;3889;48.162;11.510;2023-03-26T05:32:41;4.07;;;1.90;;
7693;SDS011;3889;48.162;11.510;2023-03-26T05:35:09;4.25;;;1.98;;
7693;SDS011;3889;48.162;11.510;2023-03-26T05:37:37;5.15;;;2.35;;
7693;SDS011;3889;48.162;11.510;2023-03-26T05:40:06;7.28;;;2.22;;
7693;SDS011;3889;48.162;11.510;2023-03-26T05:42:37;5.57;;;2.13;;
7693;SDS011;3889;48.162;11.510;2023-03-26T05:45:08;6.07;;;2.28;;
7693;SDS011;3889;48.162;11.510;2023-03-26T05:47:37;4.90;;;2.00;;
7693;SDS011;3889;48.162;11.510;2023-03-26T05:50:05;5.20;;;2.47;;
7693;SDS011;3889;48.162;11.510;2023-03-26T05:52:34;5.97;;;2.22;;
7693;SDS011;3889;48.162;11.510;2023-03-26T05:55:03;4.65;;;2.00;;
7693;SDS011;3889;48.162;11.510;2023-03-26T05:57:31;5.57;;;2.15;;
7693;SDS011;3889;48.162;11.510;2023-03-26T06:00:00;4.63;;;2.42;;
7693;SDS011;3889;48.162;11.510;2023-03-26T06:02:30;4.47;;;2.08;;
7693;SDS011;3889;48.162;11.510;2023-03-26T06:04:58;6.95;;;2.50;;
7693;SDS011;3889;48.162;11.510;2023-03-26T06:07:27;5.80;;;2.25;;
7693;SDS011;3889;48.162;11.510;2023-03-26T06:09:56;6.10;;;2.53;;
7693;SDS011;3889;48.162;11.510;2023-03-26T06:12:24;4.28;;;2.30;;
7693;SDS011;3889;48.162;11.510;2023-03-26T06:14:51;5.30;;;2.28;;
7693;SDS011;3889;48.162;11.510;2023-03-26T06:17:19;5.33;;;2.40;;
7693;SDS011;3889;48.162;11.510;2023-03-26T06:19:48;6.75;;;2.33;;
7693;SDS011;3889;48.162;11.510;2023-03-26T06:22:16;4.80;;;2.30;;
7693;SDS011;3889;48.162;11.510;2023-03-26T06:24:44;4.22;;;2.20;;
7693;SDS011;3889;48.162;11.510;2023-03-26T06:27:12;4.95;;;2.15;;
7693;SDS011;3889;48.162;11.510;2023-03-26T06:29:40;4.70;;;2.20;;
7693;SDS011;3889;48.162;11.510;2023-03-26T06:32:08;5.95;;;2.50;;
7693;SDS011;3889;48.162;11.510;2023-03-26T06:34:45;4.18;;;2.10;;
7693;SDS011;3889;48.162;11.510;2023-03-26T06:37:15;6.90;;;2.35;;
7693;SDS011;3889;48.162;11.510;2023-03-26T06:39:43;4.53;;;2.10;;
7693;SDS011;3889;48.162;11.510;2023-03-26T06:42:11;4.95;;;2.28;;
7693;SDS011;3889;48.162;11.510;2023-03-26T06:44:39;5.00;;;2.25;;
7693;SDS011;3889;48.162;11.510;2023-03-26T06:47:07;5.25;;;2.38;;
7693;SDS011;3889;48.162;11.510;2023-03-26T06:49:35;5.40;;;2.20;;
7693;SDS011;3889;48.162;11.510;2023-03-26T06:52:04;6.63;;;2.30;;
7693;SDS011;3889;48.162;11.510;2023-03-26T06:54:33;4.93;;;2.20;;
7693;SDS011;3889;48.162;11.510;2023-03-26T06:57:01;4.70;;;2.17;;
7693;SDS011;3889;48.162;11.510;2023-03-26T06:59:29;5.13;;;2.28;;
7693;SDS011;3889;48.162;11.510;2023-03-26T07:01:58;5.65;;;2.58;;
7693;SDS011;3889;48.162;11.510;2023-03-26T07:04:26;4.73;;;2.40;;
7693;SDS011;3889;48.162;11.510;2023-03-26T07:06:54;5.28;;;2.10;;
7693;SDS011;3889;48.162;11.510;2023-03-26T07:09:22;5.63;;;2.28;;
7693;SDS011;3889;48.162;11.510;2023-03-26T07:11:52;5.15;;;2.20;;
7693;SDS011;3889;48.162;11.510;2023-03-26T07:14:20;4.97;;;2.72;;
7693;SDS011;3889;48.162;11.510;2023-03-26T07:16:49;6.28;;;2.20;;
7693;SDS011;3889;48.162;11.510;2023-03-26T07:19:17;5.57;;;2.05;;
7693;SDS011;3889;48.162;11.510;2023-03-26T07:21:45;7.00;;;2.20;;
7693;SDS011;3889;48.162;11.510;2023-03-26T07:24:14;5.53;;;2.28;;
7693;SDS011;3889;48.162;11.510;2023-03-26T07:26:45;6.80;;;2.20;;
7693;SDS011;3889;48.162;11.510;2023-03-26T07:29:21;5.75;;;2.25;;
7693;SDS011;3889;48.162;11.510;2023-03-26T07:31:59;6.53;;;2.30;;
7693;SDS011;3889;48.162;11.510;2023-03-26T07:34:37;5.43;;;2.35;;
7693;SDS011;3889;48.162;11.510;2023-03-26T07:37:14;8.63;;;2.53;;
7693;SDS011;3889;48.162;11.510;2023-03-26T07:39:51;4.82;;;2.25;;
7693;SDS011;3889;48.162;11.510;2023-03-26T07:42:28;7.55;;;2.28;;
7693;SDS011;3889;48.162;11.510;2023-03-26T07:45:17;7.18;;;2.58;;
7693;SDS011;3889;48.162;11.510;2023-03-26T07:47:51;5.72;;;2.40;;
7693;SDS011;3889;48.162;11.510;2023-03-26T07:50:22;6.65;;;2.53;;
7693;SDS011;3889;48.162;11.510;2023-03-26T07:52:51;6.47;;;2.30;;
7693;SDS011;3889;48.162;11.510;2023-03-26T07:55:19;5.38;;;2.15;;
7693;SDS011;3889;48.162;11.510;2023-03-26T07:57:51;5.32;;;2.40;;
7693;SDS011;3889;48.162;11.510;2023-03-26T08:00:29;7.07;;;2.80;;
7693;SDS011;3889;48.162;11.510;2023-03-26T08:03:15;6.00;;;2.40;;
7693;SDS011;3889;48.162;11.510;2023-03-26T08:05:57;6.07;;;2.45;;
7693;SDS011;3889;48.162;11.510;2023-03-26T08:08:33;6.55;;;2.33;;
7693;SDS011;3889;48.162;11.510;2023-03-26T08:11:10;6.00;;;2.30;;
7693;SDS011;3889;48.162;11.510;2023-03-26T08:13:52;6.88;;;2.50;;
7693;SDS011;3889;48.162;11.510;2023-03-26T08:16:29;5.95;;;2.58;;
7693;SDS011;3889;48.162;11.510;2023-03-26T08:19:04;6.35;;;2.50;;
7693;SDS011;3889;48.162;11.510;2023-03-26T08:21:54;9.18;;;3.22;;
7693;SDS011;3889;48.162;11.510;2023-03-26T08:24:30;5.55;;;2.28;;
7693;SDS011;3889;48.162;11.510;2023-03-26T08:27:05;5.47;;;2.30;;
7693;SDS011;3889;48.162;11.510;2023-03-26T08:29:40;7.53;;;2.50;;
7693;SDS011;3889;48.162;11.510;2023-03-26T08:32:17;5.47;;;2.50;;
7693;SDS011;3889;48.162;11.510;2023-03-26T08:34:46;7.43;;;2.60;;
7693;SDS011;3889;48.162;11.510;2023-03-26T08:37:14;5.22;;;2.25;;
7693;SDS011;3889;48.162;11.510;2023-03-26T08:39:42;6.07;;;2.28;;
7693;SDS011;3889;48.162;11.510;2023-03-26T08:42:17;5.43;;;2.25;;
7693;SDS011;3889;48.162;11.510;2023-03-26T08:48:11;6.03;;;2.53;;
7693;SDS011;3889;48.162;11.510;2023-03-26T08:51:18;5.38;;;2.47;;
7693;SDS011;3889;48.162;11.510;2023-03-26T08:54:39;6.03;;;2.35;;
7693;SDS011;3889;48.162;11.510;2023-03-26T09:00:33;5.03;;;2.40;;
7693;SDS011;3889;48.162;11.510;2023-03-26T09:03:39;5.78;;;2.35;;
7693;SDS011;3889;48.162;11.510;2023-03-26T09:15:32;6.32;;;2.28;;
7693;SDS011;3889;48.162;11.510;2023-03-26T09:22:00;6.00;;;2.40;;
7693;SDS011;3889;48.162;11.510;2023-03-26T09:24:49;5.80;;;2.30;;
7693;SDS011;3889;48.162;11.510;2023-03-26T09:27:57;4.30;;;2.05;;
7693;SDS011;3889;48.162;11.510;2023-03-26T09:30:59;4.75;;;2.63;;
7693;SDS011;3889;48.162;11.510;2023-03-26T09:33:50;4.28;;;2.08;;
7693;SDS011;3889;48.162;11.510;2023-03-26T09:36:31;5.25;;;2.33;;
7693;SDS011;3889;48.162;11.510;2023-03-26T09:39:08;4.20;;;1.90;;
7693;SDS011;3889;48.162;11.510;2023-03-26T09:41:43;4.10;;;2.00;;
7693;SDS011;3889;48.162;11.510;2023-03-26T09:44:32;5.32;;;2.20;;
7693;SDS011;3889;48.162;11.510;2023-03-26T09:47:42;5.93;;;2.60;;
7693;SDS011;3889;48.162;11.510;2023-03-26T09:50:42;4.25;;;2.03;;
7693;SDS011;3889;48.162;11.510;2023-03-26T09:53:36;4.78;;;2.25;;
7693;SDS011;3889;48.162;11.510;2023-03-26T09:56:24;5.72;;;2.50;;
7693;SDS011;3889;48.162;11.510;2023-03-26T09:59:07;4.65;;;2.55;;
7693;SDS011;3889;48.162;11.510;2023-03-26T10:02:01;6.00;;;2.50;;
7693;SDS011;3889;48.162;11.510;2023-03-26T10:04:53;6.13;;;2.85;;
7693;SDS011;3889;48.162;11.510;2023-03-26T10:07:37;6.07;;;2.70;;
7693;SDS011;3889;48.162;11.510;2023-03-26T10:10:19;6.22;;;2.65;;
7693;SDS011;3889;48.162;11.510;2023-03-26T10:12:57;5.47;;;2.55;;
7693;SDS011;3889;48.162;11.510;2023-03-26T10:15:44;5.85;;;2.70;;
7693;SDS011;3889;48.162;11.510;2023-03-26T10:18:27;5.80;;;2.78;;
7693;SDS011;3889;48.162;11.510;2023-03-26T10:21:03;4.35;;;2.30;;
7693;SDS011;3889;48.162;11.510;2023-03-26T10:23:37;6.87;;;2.90;;
7693;SDS011;3889;48.162;11.510;2023-03-26T10:26:40;6.93;;;2.80;;
7693;SDS011;3889;48.162;11.510;2023-03-26T10:29:43;4.80;;;2.40;;
7693;SDS011;3889;48.162;11.510;2023-03-26T10:32:35;5.60;;;2.50;;
7693;SDS011;3889;48.162;11.510;2023-03-26T10:35:24;5.32;;;2.58;;
7693;SDS011;3889;48.162;11.510;2023-03-26T10:38:07;5.10;;;2.90;;
7693;SDS011;3889;48.162;11.510;2023-03-26T10:40:43;5.22;;;2.80;;
7693;SDS011;3889;48.162;11.510;2023-03-26T10:43:34;5.53;;;2.72;;
7693;SDS011;3889;48.162;11.510;2023-03-26T10:46:38;5.78;;;2.95;;
7693;SDS011;3889;48.162;11.510;2023-03-26T10:52:21;6.00;;;2.78;;
7693;SDS011;3889;48.162;11.510;2023-03-26T10:54:52;5.55;;;2.70;;
7693;SDS011;3889;48.162;11.510;2023-03-26T10:57:27;6.67;;;3.00;;
7693;SDS011;3889;48.162;11.510;2023-03-26T11:00:12;4.47;;;2.30;;
7693;SDS011;3889;48.162;11.510;2023-03-26T11:02:54;5.82;;;2.55;;
7693;SDS011;3889;48.162;11.510;2023-03-26T11:05:45;4.63;;;2.40;;
7693;SDS011;3889;48.162;11.510;2023-03-26T11:08:17;4.40;;;2.40;;
7693;SDS011;3889;48.162;11.510;2023-03-26T11:10:58;4.35;;;2.22;;
7693;SDS011;3889;48.162;11.510;2023-03-26T11:13:38;2.33;;;1.70;;
7693;SDS011;3889;48.162;11.510;2023-03-26T11:16:14;3.03;;;1.85;;
7693;SDS011;3889;48.162;11.510;2023-03-26T11:18:47;3.15;;;1.80;;
7693;SDS011;3889;48.162;11.510;2023-03-26T11:21:23;3.53;;;1.90;;
7693;SDS011;3889;48.162;11.510;2023-03-26T11:24:02;3.50;;;2.10;;
7693;SDS011;3889;48.162;11.510;2023-03-26T11:26:48;3.40;;;1.97;;
7693;SDS011;3889;48.162;11.510;2023-03-26T11:29:30;3.95;;;1.85;;
7693;SDS011;3889;48.162;11.510;2023-03-26T11:32:08;2.83;;;1.92;;
7693;SDS011;3889;48.162;11.510;2023-03-26T11:34:39;2.60;;;1.77;;
7693;SDS011;3889;48.162;11.510;2023-03-26T11:37:13;3.57;;;1.70;;
7693;SDS011;3889;48.162;11.510;2023-03-26T11:39:46;2.47;;;1.60;;
7693;SDS011;3889;48.162;11.510;2023-03-26T11:42:20;2.20;;;1.50;;
7693;SDS011;3889;48.162;11.510;2023-03-26T11:44:51;2.22;;;1.50;;
7693;SDS011;3889;48.162;11.510;2023-03-26T11:47:23;3.53;;;2.15;;
7693;SDS011;3889;48.162;11.510;2023-03-26T11:49:57;1.42;;;1.05;;
7693;SDS011;3889;48.162;11.510;2023-03-26T11:52:26;1.80;;;0.90;;
7693;SDS011;3889;48.162;11.510;2023-03-26T11:54:54;1.42;;;1.05;;
7693;SDS011;3889;48.162;11.510;2023-03-26T11:57:24;1.33;;;1.00;;
7693;SDS011;3889;48.162;11.510;2023-03-26T11:59:57;1.05;;;0.90;;
7693;SDS011;3889;48.162;11.510;2023-03-26T12:02:38;1.35;;;0.90;;
7693;SDS011;3889;48.162;11.510;2023-03-26T12:05:11;1.40;;;0.90;;
7693;SDS011;3889;48.162;11.510;2023-03-26T12:07:44;1.50;;;1.00;;
7693;SDS011;3889;48.162;11.510;2023-03-26T12:10:20;1.08;;;0.93;;
7693;SDS011;3889;48.162;11.510;2023-03-26T12:12:51;0.93;;;0.90;;
7693;SDS011;3889;48.162;11.510;2023-03-26T12:15:21;1.10;;;1.00;;
7693;SDS011;3889;48.162;11.510;2023-03-26T12:17:51;1.27;;;1.15;;
7693;SDS011;3889;48.162;11.510;2023-03-26T12:20:29;1.75;;;1.10;;
7693;SDS011;3889;48.162;11.510;2023-03-26T12:23:00;1.03;;;0.93;;
7693;SDS011;3889;48.162;11.510;2023-03-26T12:25:30;1.40;;;1.10;;
7693;SDS011;3889;48.162;11.510;2023-03-26T12:27:59;1.85;;;1.27;;
7693;SDS011;3889;48.162;11.510;2023-03-26T12:30:29;1.30;;;1.20;;
7693;SDS011;3889;48.162;11.510;2023-03-26T12:33:01;2.50;;;1.63;;
7693;SDS011;3889;48.162;11.510;2023-03-26T12:35:32;1.83;;;1.60;;
7693;SDS011;3889;48.162;11.510;2023-03-26T12:38:21;2.10;;;1.48;;
7693;SDS011;3889;48.162;11.510;2023-03-26T12:41:02;2.42;;;1.38;;
7693;SDS011;3889;48.162;11.510;2023-03-26T12:43:35;2.63;;;1.90;;
7693;SDS011;3889;48.162;11.510;2023-03-26T12:46:26;1.70;;;1.25;;
7693;SDS011;3889;48.162;11.510;2023-03-26T12:49:18;2.78;;;1.60;;
7693;SDS011;3889;48.162;11.510;2023-03-26T12:51:47;2.45;;;1.40;;
7693;SDS011;3889;48.162;11.510;2023-03-26T12:54:26;2.72;;;1.58;;
7693;SDS011;3889;48.162;11.510;2023-03-26T12:57:14;2.28;;;1.38;;
7693;SDS011;3889;48.162;11.510;2023-03-26T12:59:48;3.08;;;1.63;;
7693;SDS011;3889;48.162;11.510;2023-03-26T13:02:51;3.13;;;1.70;;
7693;SDS011;3889;48.162;11.510;2023-03-26T13:05:31;1.85;;;1.40;;
7693;SDS011;3889;48.162;11.510;2023-03-26T13:08:23;2.40;;;1.40;;
7693;SDS011;3889;48.162;11.510;2023-03-26T13:11:02;1.55;;;1.27;;
7693;SDS011;3889;48.162;11.510;2023-03-26T13:13:41;1.42;;;1.20;;
7693;SDS011;3889;48.162;11.510;2023-03-26T13:16:23;2.28;;;1.45;;
7693;SDS011;3889;48.162;11.510;2023-03-26T13:19:00;1.42;;;1.25;;
7693;SDS011;3889;48.162;11.510;2023-03-26T13:21:37;1.92;;;1.40;;
7693;SDS011;3889;48.162;11.510;2023-03-26T13:24:16;2.30;;;1.60;;
7693;SDS011;3889;48.162;11.510;2023-03-26T13:26:59;1.67;;;1.40;;
7693;SDS011;3889;48.162;11.510;2023-03-26T13:29:40;2.10;;;1.52;;
7693;SDS011;3889;48.162;11.510;2023-03-26T13:32:23;2.22;;;1.42;;
7693;SDS011;3889;48.162;11.510;2023-03-26T13:35:09;1.92;;;1.20;;
7693;SDS011;3889;48.162;11.510;2023-03-26T13:37:48;2.17;;;1.30;;
7693;SDS011;3889;48.162;11.510;2023-03-26T13:40:23;1.73;;;1.50;;
7693;SDS011;3889;48.162;11.510;2023-03-26T13:43:03;2.10;;;1.52;;
7693;SDS011;3889;48.162;11.510;2023-03-26T13:45:53;3.03;;;1.58;;
7693;SDS011;3889;48.162;11.510;2023-03-26T13:48:29;2.53;;;1.63;;
7693;SDS011;3889;48.162;11.510;2023-03-26T13:51:03;1.60;;;1.30;;
7693;SDS011;3889;48.162;11.510;2023-03-26T13:53:40;1.70;;;1.30;;
7693;SDS011;3889;48.162;11.510;2023-03-26T13:56:14;2.10;;;1.48;;
7693;SDS011;3889;48.162;11.510;2023-03-26T13:58:45;2.05;;;1.45;;
7693;SDS011;3889;48.162;11.510;2023-03-26T14:01:18;1.52;;;1.30;;
7693;SDS011;3889;48.162;11.510;2023-03-26T14:03:59;2.25;;;1.48;;
7693;SDS011;3889;48.162;11.510;2023-03-26T14:06:36;1.75;;;1.10;;
7693;SDS011;3889;48.162;11.510;2023-03-26T14:09:14;1.20;;;1.10;;
7693;SDS011;3889;48.162;11.510;2023-03-26T14:11:50;0.90;;;0.80;;
7693;SDS011;3889;48.162;11.510;2023-03-26T14:14:31;1.23;;;1.00;;
7693;SDS011;3889;48.162;11.510;2023-03-26T14:17:05;2.00;;;1.17;;
7693;SDS011;3889;48.162;11.510;2023-03-26T14:22:42;1.48;;;1.00;;
7693;SDS011;3889;48.162;11.510;2023-03-26T14:25:25;1.08;;;0.90;;
7693;SDS011;3889;48.162;11.510;2023-03-26T14:28:09;0.70;;;0.70;;
7693;SDS011;3889;48.162;11.510;2023-03-26T14:30:53;0.82;;;0.80;;
7693;SDS011;3889;48.162;11.510;2023-03-26T14:33:42;1.50;;;0.90;;
7693;SDS011;3889;48.162;11.510;2023-03-26T14:36:42;0.93;;;0.93;;
7693;SDS011;3889;48.162;11.510;2023-03-26T14:39:56;1.10;;;1.00;;
7693;SDS011;3889;48.162;11.510;2023-03-26T14:42:45;1.30;;;1.00;;
7693;SDS011;3889;48.162;11.510;2023-03-26T14:51:22;1.70;;;1.00;;
7693;SDS011;3889;48.162;11.510;2023-03-26T14:54:01;1.08;;;0.90;;
7693;SDS011;3889;48.162;11.510;2023-03-26T14:56:41;1.00;;;0.90;;
7693;SDS011;3889;48.162;11.510;2023-03-26T15:02:56;1.10;;;0.90;;
7693;SDS011;3889;48.162;11.510;2023-03-26T15:06:10;1.20;;;1.10;;
7693;SDS011;3889;48.162;11.510;2023-03-26T15:12:18;1.70;;;0.95;;
7693;SDS011;3889;48.162;11.510;2023-03-26T15:21:17;1.30;;;1.20;;
7693;SDS011;3889;48.162;11.510;2023-03-26T15:24:20;2.63;;;1.20;;
7693;SDS011;3889;48.162;11.510;2023-03-26T15:30:16;2.00;;;1.30;;
7693;SDS011;3889;48.162;11.510;2023-03-26T15:36:18;1.90;;;1.50;;
7693;SDS011;3889;48.162;11.510;2023-03-26T15:44:56;2.30;;;1.63;;
7693;SDS011;3889;48.162;11.510;2023-03-26T15:47:47;2.30;;;1.80;;
7693;SDS011;3889;48.162;11.510;2023-03-26T15:50:28;2.27;;;1.63;;
7693;SDS011;3889;48.162;11.510;2023-03-26T15:58:53;2.28;;;1.30;;
7693;SDS011;3889;48.162;11.510;2023-03-26T16:01:34;2.13;;;1.17;;
7693;SDS011;3889;48.162;11.510;2023-03-26T16:04:16;1.35;;;0.90;;
7693;SDS011;3889;48.162;11.510;2023-03-26T16:06:53;1.20;;;0.80;;
7693;SDS011;3889;48.162;11.510;2023-03-26T16:09:43;1.98;;;0.95;;
7693;SDS011;3889;48.162;11.510;2023-03-26T16:12:32;1.50;;;0.88;;
7693;SDS011;3889;48.162;11.510;2023-03-26T16:15:19;1.40;;;1.00;;
7693;SDS011;3889;48.162;11.510;2023-03-26T16:21:24;2.07;;;1.10;;
7693;SDS011;3889;48.162;11.510;2023-03-26T16:24:23;2.83;;;1.40;;
7693;SDS011;3889;48.162;11.510;2023-03-26T16:27:02;2.28;;;1.25;;
7693;SDS011;3889;48.162;11.510;2023-03-26T16:30:05;1.48;;;0.90;;
7693;SDS011;3889;48.162;11.510;2023-03-26T16:32:46;1.52;;;1.00;;
7693;SDS011;3889;48.162;11.510;2023-03-26T16:35:35;1.05;;;0.88;;
7693;SDS011;3889;48.162;11.510;2023-03-26T16:38:14;1.30;;;1.15;;
7693;SDS011;3889;48.162;11.510;2023-03-26T16:40:50;1.77;;;1.27;;
7693;SDS011;3889;48.162;11.510;2023-03-26T16:46:28;1.85;;;1.13;;
7693;SDS011;3889;48.162;11.510;2023-03-26T16:49:04;1.83;;;1.02;;
7693;SDS011;3889;48.162;11.510;2023-03-26T16:51:48;1.85;;;1.02;;
7693;SDS011;3889;48.162;11.510;2023-03-26T16:54:26;1.00;;;1.00;;
7693;SDS011;3889;48.162;11.510;2023-03-26T16:57:05;1.08;;;0.80;;
7693;SDS011;3889;48.162;11.510;2023-03-26T16:59:49;1.73;;;1.00;;
7693;SDS011;3889;48.162;11.510;2023-03-26T17:02:32;1.42;;;1.00;;